sensor_id;sensor_type;location;lat;lon;timestamp;P1;durP1;ratioP1;P2;durP2;ratioP2
15573;SDS011;7888;46.748;8.102;2024-03-02T00:00:50;0.77;;;0.40;;
15573;SDS011;7888;46.748;8.102;2024-03-02T00:03:17;0.30;;;0.30;;
15573;SDS011;7888;46.748;8.102;2024-03-02T00:05:44;0.30;;;0.30;;
15573;SDS011;7888;46.748;8.102;2024-03-02T00:08:23;0.40;;;0.40;;
15573;SDS011;7888;46.748;8.102;2024-03-02T00:10:51;0.30;;;0.30;;
15573;SDS011;7888;46.748;8.102;2024-03-02T00:13:21;0.60;;;0.60;;
15573;SDS011;7888;46.748;8.102;2024-03-02T00:15:56;1.17;;;0.90;;
15573;SDS011;7888;46.748;8.102;2024-03-02T00:18:35;0.90;;;0.90;;
15573;SDS011;7888;46.748;8.102;2024-03-02T00:21:02;1.27;;;0.97;;
15573;SDS011;7888;46.748;8.102;2024-03-02T00:23:30;1.00;;;1.00;;
15573;SDS011;7888;46.748;8.102;2024-03-02T00:25:58;1.07;;;0.97;;
15573;SDS011;7888;46.748;8.102;2024-03-02T00:28:31;2.50;;;0.87;;
15573;SDS011;7888;46.748;8.102;2024-03-02T00:31:08;0.87;;;0.87;;
15573;SDS011;7888;46.748;8.102;2024-03-02T00:33:39;0.70;;;0.70;;
15573;SDS011;7888;46.748;8.102;2024-03-02T00:36:12;0.80;;;0.80;;
15573;SDS011;7888;46.748;8.102;2024-03-02T00:41:21;1.03;;;0.90;;
15573;SDS011;7888;46.748;8.102;2024-03-02T00:43:53;1.10;;;1.00;;
15573;SDS011;7888;46.748;8.102;2024-03-02T00:46:33;1.20;;;0.90;;
15573;SDS011;7888;46.748;8.102;2024-03-02T00:49:02;1.13;;;1.03;;
15573;SDS011;7888;46.748;8.102;2024-03-02T00:51:31;0.90;;;0.90;;
15573;SDS011;7888;46.748;8.102;2024-03-02T00:54:00;1.00;;;0.90;;
15573;SDS011;7888;46.748;8.102;2024-03-02T00:56:29;0.87;;;0.87;;
15573;SDS011;7888;46.748;8.102;2024-03-02T00:58:56;0.70;;;0.70;;
15573;SDS011;7888;46.748;8.102;2024-03-02T01:01:22;0.90;;;0.90;;
15573;SDS011;7888;46.748;8.102;2024-03-02T01:03:48;0.90;;;0.90;;
15573;SDS011;7888;46.748;8.102;2024-03-02T01:06:15;0.93;;;0.93;;
15573;SDS011;7888;46.748;8.102;2024-03-02T01:08:42;0.70;;;0.70;;
15573;SDS011;7888;46.748;8.102;2024-03-02T01:11:08;1.10;;;0.90;;
15573;SDS011;7888;46.748;8.102;2024-03-02T01:13:34;1.13;;;0.90;;
15573;SDS011;7888;46.748;8.102;2024-03-02T01:16:00;1.30;;;1.20;;
15573;SDS011;7888;46.748;8.102;2024-03-02T01:18:27;1.17;;;1.03;;
15573;SDS011;7888;46.748;8.102;2024-03-02T01:20:53;1.00;;;1.00;;
15573;SDS011;7888;46.748;8.102;2024-03-02T01:23:22;1.20;;;1.03;;
15573;SDS011;7888;46.748;8.102;2024-03-02T01:25:49;1.37;;;1.20;;
15573;SDS011;7888;46.748;8.102;2024-03-02T01:28:15;1.30;;;1.20;;
15573;SDS011;7888;46.748;8.102;2024-03-02T01:30:41;1.40;;;1.30;;
15573;SDS011;7888;46.748;8.102;2024-03-02T01:33:07;1.20;;;1.10;;
15573;SDS011;7888;46.748;8.102;2024-03-02T01:35:33;0.60;;;0.60;;
15573;SDS011;7888;46.748;8.102;2024-03-02T01:38:00;1.13;;;0.80;;
15573;SDS011;7888;46.748;8.102;2024-03-02T01:40:26;0.80;;;0.80;;
15573;SDS011;7888;46.748;8.102;2024-03-02T01:42:53;0.80;;;0.80;;
15573;SDS011;7888;46.748;8.102;2024-03-02T01:45:19;1.10;;;0.97;;
15573;SDS011;7888;46.748;8.102;2024-03-02T01:47:46;0.83;;;0.83;;
15573;SDS011;7888;46.748;8.102;2024-03-02T01:50:12;1.10;;;0.80;;
15573;SDS011;7888;46.748;8.102;2024-03-02T01:52:38;1.10;;;0.80;;
15573;SDS011;7888;46.748;8.102;2024-03-02T01:55:05;0.83;;;0.83;;
15573;SDS011;7888;46.748;8.102;2024-03-02T01:57:32;0.90;;;0.90;;
15573;SDS011;7888;46.748;8.102;2024-03-02T01:59:59;1.07;;;0.90;;
15573;SDS011;7888;46.748;8.102;2024-03-02T02:02:26;1.20;;;1.00;;
15573;SDS011;7888;46.748;8.102;2024-03-02T02:04:52;1.50;;;1.40;;
15573;SDS011;7888;46.748;8.102;2024-03-02T02:07:18;1.30;;;1.20;;
15573;SDS011;7888;46.748;8.102;2024-03-02T02:09:44;1.40;;;1.30;;
15573;SDS011;7888;46.748;8.102;2024-03-02T02:12:10;1.40;;;1.30;;
15573;SDS011;7888;46.748;8.102;2024-03-02T02:14:36;1.53;;;1.43;;
15573;SDS011;7888;46.748;8.102;2024-03-02T02:17:02;1.53;;;1.20;;
15573;SDS011;7888;46.748;8.102;2024-03-02T02:19:28;1.40;;;1.30;;
15573;SDS011;7888;46.748;8.102;2024-03-02T02:21:54;1.30;;;1.20;;
15573;SDS011;7888;46.748;8.102;2024-03-02T02:24:20;1.10;;;1.00;;
15573;SDS011;7888;46.748;8.102;2024-03-02T02:26:46;1.33;;;1.17;;
15573;SDS011;7888;46.748;8.102;2024-03-02T02:29:12;1.20;;;1.10;;
15573;SDS011;7888;46.748;8.102;2024-03-02T02:31:38;1.00;;;1.00;;
15573;SDS011;7888;46.748;8.102;2024-03-02T02:34:05;0.70;;;0.70;;
15573;SDS011;7888;46.748;8.102;2024-03-02T02:36:32;0.80;;;0.80;;
15573;SDS011;7888;46.748;8.102;2024-03-02T02:39:00;0.80;;;0.80;;
15573;SDS011;7888;46.748;8.102;2024-03-02T02:41:29;0.80;;;0.80;;
15573;SDS011;7888;46.748;8.102;2024-03-02T02:43:55;1.10;;;1.00;;
15573;SDS011;7888;46.748;8.102;2024-03-02T02:46:21;0.83;;;0.83;;
15573;SDS011;7888;46.748;8.102;2024-03-02T02:48:47;1.10;;;1.10;;
15573;SDS011;7888;46.748;8.102;2024-03-02T02:51:13;0.90;;;0.90;;
15573;SDS011;7888;46.748;8.102;2024-03-02T02:53:39;1.33;;;0.80;;
15573;SDS011;7888;46.748;8.102;2024-03-02T02:56:07;0.63;;;0.63;;
15573;SDS011;7888;46.748;8.102;2024-03-02T02:58:33;0.87;;;0.83;;
15573;SDS011;7888;46.748;8.102;2024-03-02T03:00:59;0.80;;;0.80;;
15573;SDS011;7888;46.748;8.102;2024-03-02T03:03:24;0.80;;;0.77;;
15573;SDS011;7888;46.748;8.102;2024-03-02T03:05:50;0.80;;;0.80;;
15573;SDS011;7888;46.748;8.102;2024-03-02T03:08:16;1.23;;;1.13;;
15573;SDS011;7888;46.748;8.102;2024-03-02T03:10:42;0.90;;;0.90;;
15573;SDS011;7888;46.748;8.102;2024-03-02T03:13:07;0.67;;;0.60;;
15573;SDS011;7888;46.748;8.102;2024-03-02T03:15:37;0.50;;;0.50;;
15573;SDS011;7888;46.748;8.102;2024-03-02T03:18:03;0.53;;;0.53;;
15573;SDS011;7888;46.748;8.102;2024-03-02T03:20:30;0.43;;;0.43;;
15573;SDS011;7888;46.748;8.102;2024-03-02T03:22:56;0.97;;;0.80;;
15573;SDS011;7888;46.748;8.102;2024-03-02T03:25:22;0.50;;;0.50;;
15573;SDS011;7888;46.748;8.102;2024-03-02T03:27:48;0.30;;;0.30;;
15573;SDS011;7888;46.748;8.102;2024-03-02T03:30:14;0.30;;;0.30;;
15573;SDS011;7888;46.748;8.102;2024-03-02T03:32:40;0.30;;;0.30;;
15573;SDS011;7888;46.748;8.102;2024-03-02T03:35:06;0.30;;;0.30;;
15573;SDS011;7888;46.748;8.102;2024-03-02T03:37:32;0.40;;;0.40;;
15573;SDS011;7888;46.748;8.102;2024-03-02T03:40:02;0.43;;;0.40;;
15573;SDS011;7888;46.748;8.102;2024-03-02T03:42:32;0.50;;;0.37;;
15573;SDS011;7888;46.748;8.102;2024-03-02T03:44:57;0.30;;;0.30;;
15573;SDS011;7888;46.748;8.102;2024-03-02T03:47:23;0.37;;;0.37;;
15573;SDS011;7888;46.748;8.102;2024-03-02T03:49:49;0.30;;;0.30;;
15573;SDS011;7888;46.748;8.102;2024-03-02T03:52:14;0.30;;;0.30;;
15573;SDS011;7888;46.748;8.102;2024-03-02T03:54:40;0.30;;;0.30;;
15573;SDS011;7888;46.748;8.102;2024-03-02T03:57:07;0.30;;;0.30;;
15573;SDS011;7888;46.748;8.102;2024-03-02T03:59:33;0.20;;;0.20;;
15573;SDS011;7888;46.748;8.102;2024-03-02T04:01:59;0.47;;;0.47;;
15573;SDS011;7888;46.748;8.102;2024-03-02T04:04:25;0.70;;;0.50;;
15573;SDS011;7888;46.748;8.102;2024-03-02T04:06:50;0.70;;;0.60;;
15573;SDS011;7888;46.748;8.102;2024-03-02T04:09:16;0.50;;;0.50;;
15573;SDS011;7888;46.748;8.102;2024-03-02T04:11:42;2.60;;;0.50;;
15573;SDS011;7888;46.748;8.102;2024-03-02T04:14:08;0.60;;;0.50;;
15573;SDS011;7888;46.748;8.102;2024-03-02T04:16:34;0.50;;;0.50;;
15573;SDS011;7888;46.748;8.102;2024-03-02T04:19:00;0.90;;;0.90;;
15573;SDS011;7888;46.748;8.102;2024-03-02T04:21:26;0.67;;;0.67;;
15573;SDS011;7888;46.748;8.102;2024-03-02T04:23:52;0.60;;;0.60;;
15573;SDS011;7888;46.748;8.102;2024-03-02T04:26:22;0.70;;;0.70;;
15573;SDS011;7888;46.748;8.102;2024-03-02T04:28:48;0.50;;;0.50;;
15573;SDS011;7888;46.748;8.102;2024-03-02T04:31:14;0.50;;;0.47;;
15573;SDS011;7888;46.748;8.102;2024-03-02T04:33:41;0.30;;;0.30;;
15573;SDS011;7888;46.748;8.102;2024-03-02T04:36:06;0.30;;;0.30;;
15573;SDS011;7888;46.748;8.102;2024-03-02T04:38:34;0.50;;;0.50;;
15573;SDS011;7888;46.748;8.102;2024-03-02T04:41:00;0.50;;;0.50;;
15573;SDS011;7888;46.748;8.102;2024-03-02T04:43:26;0.57;;;0.57;;
15573;SDS011;7888;46.748;8.102;2024-03-02T04:45:52;0.57;;;0.57;;
15573;SDS011;7888;46.748;8.102;2024-03-02T04:48:18;0.60;;;0.60;;
15573;SDS011;7888;46.748;8.102;2024-03-02T04:50:44;0.80;;;0.80;;
15573;SDS011;7888;46.748;8.102;2024-03-02T04:53:10;2.03;;;0.80;;
15573;SDS011;7888;46.748;8.102;2024-03-02T04:55:36;0.80;;;0.80;;
15573;SDS011;7888;46.748;8.102;2024-03-02T04:58:05;0.83;;;0.83;;
15573;SDS011;7888;46.748;8.102;2024-03-02T05:00:31;0.87;;;0.87;;
15573;SDS011;7888;46.748;8.102;2024-03-02T05:02:58;2.87;;;1.20;;
15573;SDS011;7888;46.748;8.102;2024-03-02T05:05:23;1.50;;;0.97;;
15573;SDS011;7888;46.748;8.102;2024-03-02T05:07:49;1.00;;;1.00;;
15573;SDS011;7888;46.748;8.102;2024-03-02T05:10:15;1.40;;;1.00;;
15573;SDS011;7888;46.748;8.102;2024-03-02T05:12:41;1.57;;;1.30;;
15573;SDS011;7888;46.748;8.102;2024-03-02T05:15:07;1.13;;;1.10;;
15573;SDS011;7888;46.748;8.102;2024-03-02T05:17:35;1.40;;;1.30;;
15573;SDS011;7888;46.748;8.102;2024-03-02T05:20:02;1.43;;;1.33;;
15573;SDS011;7888;46.748;8.102;2024-03-02T05:22:29;1.27;;;1.20;;
15573;SDS011;7888;46.748;8.102;2024-03-02T05:24:54;1.27;;;1.17;;
15573;SDS011;7888;46.748;8.102;2024-03-02T05:27:21;1.17;;;1.10;;
15573;SDS011;7888;46.748;8.102;2024-03-02T05:29:47;0.80;;;0.80;;
15573;SDS011;7888;46.748;8.102;2024-03-02T05:32:13;0.70;;;0.70;;
15573;SDS011;7888;46.748;8.102;2024-03-02T05:34:38;1.80;;;0.90;;
15573;SDS011;7888;46.748;8.102;2024-03-02T05:37:04;0.80;;;0.80;;
15573;SDS011;7888;46.748;8.102;2024-03-02T05:39:30;1.20;;;1.00;;
15573;SDS011;7888;46.748;8.102;2024-03-02T05:41:56;0.80;;;0.80;;
15573;SDS011;7888;46.748;8.102;2024-03-02T05:44:21;0.83;;;0.83;;
15573;SDS011;7888;46.748;8.102;2024-03-02T05:46:47;1.10;;;0.97;;
15573;SDS011;7888;46.748;8.102;2024-03-02T05:49:13;1.13;;;1.03;;
15573;SDS011;7888;46.748;8.102;2024-03-02T05:51:39;1.00;;;0.80;;
15573;SDS011;7888;46.748;8.102;2024-03-02T05:54:05;0.63;;;0.63;;
15573;SDS011;7888;46.748;8.102;2024-03-02T05:56:30;0.70;;;0.70;;
15573;SDS011;7888;46.748;8.102;2024-03-02T05:58:57;1.20;;;0.70;;
15573;SDS011;7888;46.748;8.102;2024-03-02T06:01:33;1.07;;;0.97;;
15573;SDS011;7888;46.748;8.102;2024-03-02T06:03:59;1.30;;;0.97;;
15573;SDS011;7888;46.748;8.102;2024-03-02T06:06:25;0.83;;;0.83;;
15573;SDS011;7888;46.748;8.102;2024-03-02T06:08:51;1.03;;;0.93;;
15573;SDS011;7888;46.748;8.102;2024-03-02T06:11:19;2.87;;;1.50;;
15573;SDS011;7888;46.748;8.102;2024-03-02T06:13:45;2.40;;;1.30;;
15573;SDS011;7888;46.748;8.102;2024-03-02T06:16:11;1.73;;;1.57;;
15573;SDS011;7888;46.748;8.102;2024-03-02T06:18:37;1.27;;;1.17;;
15573;SDS011;7888;46.748;8.102;2024-03-02T06:21:03;1.33;;;1.23;;
15573;SDS011;7888;46.748;8.102;2024-03-02T06:23:29;2.87;;;1.47;;
15573;SDS011;7888;46.748;8.102;2024-03-02T06:25:54;1.67;;;1.40;;
15573;SDS011;7888;46.748;8.102;2024-03-02T06:28:20;9.37;;;1.50;;
15573;SDS011;7888;46.748;8.102;2024-03-02T06:30:46;1.30;;;1.20;;
15573;SDS011;7888;46.748;8.102;2024-03-02T06:33:12;2.30;;;1.17;;
15573;SDS011;7888;46.748;8.102;2024-03-02T06:35:37;1.30;;;1.20;;
15573;SDS011;7888;46.748;8.102;2024-03-02T06:38:04;1.83;;;1.43;;
15573;SDS011;7888;46.748;8.102;2024-03-02T06:40:29;1.30;;;1.20;;
15573;SDS011;7888;46.748;8.102;2024-03-02T06:42:55;1.20;;;1.10;;
15573;SDS011;7888;46.748;8.102;2024-03-02T06:45:21;1.10;;;1.10;;
15573;SDS011;7888;46.748;8.102;2024-03-02T06:47:47;0.80;;;0.80;;
15573;SDS011;7888;46.748;8.102;2024-03-02T06:50:12;1.20;;;1.10;;
15573;SDS011;7888;46.748;8.102;2024-03-02T06:52:38;1.63;;;1.20;;
15573;SDS011;7888;46.748;8.102;2024-03-02T06:55:04;1.40;;;1.30;;
15573;SDS011;7888;46.748;8.102;2024-03-02T06:57:31;1.00;;;0.97;;
15573;SDS011;7888;46.748;8.102;2024-03-02T06:59:56;1.20;;;1.10;;
15573;SDS011;7888;46.748;8.102;2024-03-02T07:02:24;1.00;;;1.00;;
15573;SDS011;7888;46.748;8.102;2024-03-02T07:04:53;0.80;;;0.80;;
15573;SDS011;7888;46.748;8.102;2024-03-02T07:07:19;1.53;;;1.10;;
15573;SDS011;7888;46.748;8.102;2024-03-02T07:09:45;0.70;;;0.70;;
15573;SDS011;7888;46.748;8.102;2024-03-02T07:12:12;0.80;;;0.80;;
15573;SDS011;7888;46.748;8.102;2024-03-02T07:14:38;0.80;;;0.80;;
15573;SDS011;7888;46.748;8.102;2024-03-02T07:17:35;1.60;;;0.80;;
15573;SDS011;7888;46.748;8.102;2024-03-02T07:20:02;1.00;;;0.90;;
15573;SDS011;7888;46.748;8.102;2024-03-02T07:22:31;2.70;;;0.57;;
15573;SDS011;7888;46.748;8.102;2024-03-02T07:24:58;0.50;;;0.50;;
15573;SDS011;7888;46.748;8.102;2024-03-02T07:27:23;0.50;;;0.50;;
15573;SDS011;7888;46.748;8.102;2024-03-02T07:29:49;0.53;;;0.50;;
15573;SDS011;7888;46.748;8.102;2024-03-02T07:32:15;0.40;;;0.40;;
15573;SDS011;7888;46.748;8.102;2024-03-02T07:34:41;0.37;;;0.37;;
15573;SDS011;7888;46.748;8.102;2024-03-02T07:37:07;0.43;;;0.43;;
15573;SDS011;7888;46.748;8.102;2024-03-02T07:39:32;1.83;;;0.60;;
15573;SDS011;7888;46.748;8.102;2024-03-02T07:41:59;0.73;;;0.70;;
15573;SDS011;7888;46.748;8.102;2024-03-02T07:44:25;0.50;;;0.50;;
15573;SDS011;7888;46.748;8.102;2024-03-02T07:46:51;0.70;;;0.70;;
15573;SDS011;7888;46.748;8.102;2024-03-02T07:49:17;0.70;;;0.70;;
15573;SDS011;7888;46.748;8.102;2024-03-02T07:51:44;0.50;;;0.50;;
15573;SDS011;7888;46.748;8.102;2024-03-02T07:54:09;1.03;;;0.90;;
15573;SDS011;7888;46.748;8.102;2024-03-02T07:56:35;0.60;;;0.60;;
15573;SDS011;7888;46.748;8.102;2024-03-02T07:59:02;0.63;;;0.63;;
15573;SDS011;7888;46.748;8.102;2024-03-02T08:01:28;1.03;;;0.80;;
15573;SDS011;7888;46.748;8.102;2024-03-02T08:03:59;0.90;;;0.80;;
15573;SDS011;7888;46.748;8.102;2024-03-02T08:06:26;0.70;;;0.70;;
15573;SDS011;7888;46.748;8.102;2024-03-02T08:08:59;0.67;;;0.67;;
15573;SDS011;7888;46.748;8.102;2024-03-02T08:11:26;0.60;;;0.60;;
15573;SDS011;7888;46.748;8.102;2024-03-02T08:13:52;0.90;;;0.90;;
15573;SDS011;7888;46.748;8.102;2024-03-02T08:16:20;0.80;;;0.80;;
15573;SDS011;7888;46.748;8.102;2024-03-02T08:18:50;0.80;;;0.80;;
15573;SDS011;7888;46.748;8.102;2024-03-02T08:21:17;0.73;;;0.73;;
15573;SDS011;7888;46.748;8.102;2024-03-02T08:23:43;0.90;;;0.73;;
15573;SDS011;7888;46.748;8.102;2024-03-02T08:26:09;0.70;;;0.60;;
15573;SDS011;7888;46.748;8.102;2024-03-02T08:28:36;0.83;;;0.63;;
15573;SDS011;7888;46.748;8.102;2024-03-02T08:31:02;2.07;;;0.90;;
15573;SDS011;7888;46.748;8.102;2024-03-02T08:33:28;1.10;;;1.00;;
15573;SDS011;7888;46.748;8.102;2024-03-02T08:35:55;1.50;;;1.40;;
15573;SDS011;7888;46.748;8.102;2024-03-02T08:38:21;2.27;;;2.07;;
15573;SDS011;7888;46.748;8.102;2024-03-02T08:40:48;1.10;;;1.00;;
15573;SDS011;7888;46.748;8.102;2024-03-02T08:43:15;0.90;;;0.90;;
15573;SDS011;7888;46.748;8.102;2024-03-02T08:45:41;1.13;;;0.90;;
15573;SDS011;7888;46.748;8.102;2024-03-02T08:48:07;1.93;;;0.70;;
15573;SDS011;7888;46.748;8.102;2024-03-02T08:50:33;0.90;;;0.90;;
15573;SDS011;7888;46.748;8.102;2024-03-02T08:53:00;0.70;;;0.70;;
15573;SDS011;7888;46.748;8.102;2024-03-02T08:55:26;5.60;;;0.90;;
15573;SDS011;7888;46.748;8.102;2024-03-02T08:57:51;1.47;;;0.97;;
15573;SDS011;7888;46.748;8.102;2024-03-02T09:00:18;0.80;;;0.80;;
15573;SDS011;7888;46.748;8.102;2024-03-02T09:02:44;0.67;;;0.67;;
15573;SDS011;7888;46.748;8.102;2024-03-02T09:05:10;0.93;;;0.80;;
15573;SDS011;7888;46.748;8.102;2024-03-02T09:07:37;1.17;;;1.13;;
15573;SDS011;7888;46.748;8.102;2024-03-02T09:10:04;0.80;;;0.80;;
15573;SDS011;7888;46.748;8.102;2024-03-02T09:12:31;0.67;;;0.67;;
15573;SDS011;7888;46.748;8.102;2024-03-02T09:14:57;0.73;;;0.73;;
15573;SDS011;7888;46.748;8.102;2024-03-02T09:17:24;2.07;;;0.80;;
15573;SDS011;7888;46.748;8.102;2024-03-02T09:19:50;0.80;;;0.80;;
15573;SDS011;7888;46.748;8.102;2024-03-02T09:22:19;0.80;;;0.80;;
15573;SDS011;7888;46.748;8.102;2024-03-02T09:24:45;0.80;;;0.80;;
15573;SDS011;7888;46.748;8.102;2024-03-02T09:27:11;0.77;;;0.77;;
15573;SDS011;7888;46.748;8.102;2024-03-02T09:29:37;0.60;;;0.60;;
15573;SDS011;7888;46.748;8.102;2024-03-02T09:32:03;1.03;;;0.70;;
15573;SDS011;7888;46.748;8.102;2024-03-02T09:34:30;0.87;;;0.63;;
15573;SDS011;7888;46.748;8.102;2024-03-02T09:36:57;0.90;;;0.70;;
15573;SDS011;7888;46.748;8.102;2024-03-02T09:39:23;0.87;;;0.67;;
15573;SDS011;7888;46.748;8.102;2024-03-02T09:41:50;0.70;;;0.70;;
15573;SDS011;7888;46.748;8.102;2024-03-02T09:44:16;0.50;;;0.50;;
15573;SDS011;7888;46.748;8.102;2024-03-02T09:46:43;0.50;;;0.50;;
15573;SDS011;7888;46.748;8.102;2024-03-02T09:49:12;0.60;;;0.60;;
15573;SDS011;7888;46.748;8.102;2024-03-02T09:51:38;0.60;;;0.60;;
15573;SDS011;7888;46.748;8.102;2024-03-02T09:54:06;0.97;;;0.70;;
15573;SDS011;7888;46.748;8.102;2024-03-02T09:56:33;1.07;;;0.80;;
15573;SDS011;7888;46.748;8.102;2024-03-02T09:58:59;0.60;;;0.60;;
15573;SDS011;7888;46.748;8.102;2024-03-02T10:01:25;0.83;;;0.80;;
15573;SDS011;7888;46.748;8.102;2024-03-02T10:03:50;0.40;;;0.40;;
15573;SDS011;7888;46.748;8.102;2024-03-02T10:06:18;0.40;;;0.40;;
15573;SDS011;7888;46.748;8.102;2024-03-02T10:08:48;0.50;;;0.40;;
15573;SDS011;7888;46.748;8.102;2024-03-02T10:11:33;1.00;;;0.43;;
15573;SDS011;7888;46.748;8.102;2024-03-02T10:14:09;0.50;;;0.50;;
15573;SDS011;7888;46.748;8.102;2024-03-02T10:16:38;0.87;;;0.50;;
15573;SDS011;7888;46.748;8.102;2024-03-02T10:21:52;0.60;;;0.50;;
15573;SDS011;7888;46.748;8.102;2024-03-02T10:24:20;0.30;;;0.30;;
15573;SDS011;7888;46.748;8.102;2024-03-02T10:26:47;0.40;;;0.40;;
15573;SDS011;7888;46.748;8.102;2024-03-02T10:29:14;0.40;;;0.40;;
15573;SDS011;7888;46.748;8.102;2024-03-02T10:31:41;0.63;;;0.47;;
15573;SDS011;7888;46.748;8.102;2024-03-02T10:34:10;0.40;;;0.40;;
15573;SDS011;7888;46.748;8.102;2024-03-02T10:36:40;0.30;;;0.30;;
15573;SDS011;7888;46.748;8.102;2024-03-02T10:39:08;0.40;;;0.40;;
15573;SDS011;7888;46.748;8.102;2024-03-02T10:41:35;0.63;;;0.30;;
15573;SDS011;7888;46.748;8.102;2024-03-02T10:44:03;0.40;;;0.40;;
15573;SDS011;7888;46.748;8.102;2024-03-02T10:46:32;1.60;;;0.40;;
15573;SDS011;7888;46.748;8.102;2024-03-02T10:49:00;0.37;;;0.33;;
15573;SDS011;7888;46.748;8.102;2024-03-02T10:51:29;0.17;;;0.17;;
15573;SDS011;7888;46.748;8.102;2024-03-02T10:54:02;0.20;;;0.20;;
15573;SDS011;7888;46.748;8.102;2024-03-02T10:56:33;1.33;;;0.77;;
15573;SDS011;7888;46.748;8.102;2024-03-02T11:02:22;0.20;;;0.20;;
15573;SDS011;7888;46.748;8.102;2024-03-02T11:04:51;0.43;;;0.20;;
15573;SDS011;7888;46.748;8.102;2024-03-02T11:07:20;0.20;;;0.20;;
15573;SDS011;7888;46.748;8.102;2024-03-02T11:09:54;0.20;;;0.20;;
15573;SDS011;7888;46.748;8.102;2024-03-02T11:12:36;0.30;;;0.30;;
15573;SDS011;7888;46.748;8.102;2024-03-02T11:15:15;0.30;;;0.30;;
15573;SDS011;7888;46.748;8.102;2024-03-02T11:17:46;0.37;;;0.30;;
15573;SDS011;7888;46.748;8.102;2024-03-02T11:20:13;0.83;;;0.30;;
15573;SDS011;7888;46.748;8.102;2024-03-02T11:22:40;0.60;;;0.20;;
15573;SDS011;7888;46.748;8.102;2024-03-02T11:25:06;0.20;;;0.20;;
15573;SDS011;7888;46.748;8.102;2024-03-02T11:32:59;0.30;;;0.20;;
15573;SDS011;7888;46.748;8.102;2024-03-02T11:35:32;1.03;;;0.20;;
15573;SDS011;7888;46.748;8.102;2024-03-02T11:38:03;0.20;;;0.20;;
15573;SDS011;7888;46.748;8.102;2024-03-02T11:40:29;0.50;;;0.30;;
15573;SDS011;7888;46.748;8.102;2024-03-02T11:42:56;0.10;;;0.10;;
15573;SDS011;7888;46.748;8.102;2024-03-02T11:45:25;0.40;;;0.40;;
15573;SDS011;7888;46.748;8.102;2024-03-02T11:47:55;0.20;;;0.20;;
15573;SDS011;7888;46.748;8.102;2024-03-02T11:50:33;0.20;;;0.20;;
15573;SDS011;7888;46.748;8.102;2024-03-02T11:53:15;0.63;;;0.30;;
15573;SDS011;7888;46.748;8.102;2024-03-02T11:55:42;0.63;;;0.23;;
15573;SDS011;7888;46.748;8.102;2024-03-02T11:58:11;0.20;;;0.20;;
15573;SDS011;7888;46.748;8.102;2024-03-02T12:00:38;0.20;;;0.20;;
15573;SDS011;7888;46.748;8.102;2024-03-02T12:03:05;0.87;;;0.13;;
15573;SDS011;7888;46.748;8.102;2024-03-02T12:05:33;0.30;;;0.27;;
15573;SDS011;7888;46.748;8.102;2024-03-02T12:08:01;0.20;;;0.20;;
15573;SDS011;7888;46.748;8.102;2024-03-02T12:10:29;0.20;;;0.13;;
15573;SDS011;7888;46.748;8.102;2024-03-02T12:12:59;0.50;;;0.20;;
15573;SDS011;7888;46.748;8.102;2024-03-02T12:15:33;0.20;;;0.20;;
15573;SDS011;7888;46.748;8.102;2024-03-02T12:18:02;0.10;;;0.10;;
15573;SDS011;7888;46.748;8.102;2024-03-02T12:20:29;0.60;;;0.17;;
15573;SDS011;7888;46.748;8.102;2024-03-02T12:23:00;0.20;;;0.20;;
15573;SDS011;7888;46.748;8.102;2024-03-02T12:25:29;0.37;;;0.30;;
15573;SDS011;7888;46.748;8.102;2024-03-02T12:27:59;0.20;;;0.20;;
15573;SDS011;7888;46.748;8.102;2024-03-02T12:30:27;0.93;;;0.30;;
15573;SDS011;7888;46.748;8.102;2024-03-02T12:32:56;0.60;;;0.30;;
15573;SDS011;7888;46.748;8.102;2024-03-02T12:35:22;1.03;;;0.30;;
15573;SDS011;7888;46.748;8.102;2024-03-02T12:37:50;0.37;;;0.30;;
15573;SDS011;7888;46.748;8.102;2024-03-02T12:40:18;0.70;;;0.40;;
15573;SDS011;7888;46.748;8.102;2024-03-02T12:42:47;0.50;;;0.30;;
15573;SDS011;7888;46.748;8.102;2024-03-02T12:45:14;0.30;;;0.30;;
15573;SDS011;7888;46.748;8.102;2024-03-02T12:47:41;1.33;;;0.33;;
15573;SDS011;7888;46.748;8.102;2024-03-02T12:50:08;0.20;;;0.20;;
15573;SDS011;7888;46.748;8.102;2024-03-02T12:52:35;0.47;;;0.40;;
15573;SDS011;7888;46.748;8.102;2024-03-02T12:55:01;0.30;;;0.30;;
15573;SDS011;7888;46.748;8.102;2024-03-02T12:57:30;0.30;;;0.30;;
15573;SDS011;7888;46.748;8.102;2024-03-02T12:59:58;0.30;;;0.30;;
15573;SDS011;7888;46.748;8.102;2024-03-02T13:02:29;1.20;;;0.40;;
15573;SDS011;7888;46.748;8.102;2024-03-02T13:04:57;0.30;;;0.30;;
15573;SDS011;7888;46.748;8.102;2024-03-02T13:07:23;0.53;;;0.40;;
15573;SDS011;7888;46.748;8.102;2024-03-02T13:09:51;0.30;;;0.30;;
15573;SDS011;7888;46.748;8.102;2024-03-02T13:12:20;0.83;;;0.50;;
15573;SDS011;7888;46.748;8.102;2024-03-02T13:14:53;0.70;;;0.50;;
15573;SDS011;7888;46.748;8.102;2024-03-02T13:17:19;0.50;;;0.50;;
15573;SDS011;7888;46.748;8.102;2024-03-02T13:19:56;0.50;;;0.50;;
15573;SDS011;7888;46.748;8.102;2024-03-02T13:22:24;0.50;;;0.50;;
15573;SDS011;7888;46.748;8.102;2024-03-02T13:24:51;0.40;;;0.40;;
15573;SDS011;7888;46.748;8.102;2024-03-02T13:27:19;0.50;;;0.40;;
15573;SDS011;7888;46.748;8.102;2024-03-02T13:29:46;0.47;;;0.40;;
15573;SDS011;7888;46.748;8.102;2024-03-02T13:32:13;0.87;;;0.40;;
15573;SDS011;7888;46.748;8.102;2024-03-02T13:34:40;0.87;;;0.50;;
15573;SDS011;7888;46.748;8.102;2024-03-02T13:37:06;0.40;;;0.40;;
15573;SDS011;7888;46.748;8.102;2024-03-02T13:39:32;0.50;;;0.40;;
15573;SDS011;7888;46.748;8.102;2024-03-02T13:42:00;0.23;;;0.20;;
15573;SDS011;7888;46.748;8.102;2024-03-02T13:44:30;0.53;;;0.30;;
15573;SDS011;7888;46.748;8.102;2024-03-02T13:46:56;0.27;;;0.20;;
15573;SDS011;7888;46.748;8.102;2024-03-02T13:49:25;0.20;;;0.20;;
15573;SDS011;7888;46.748;8.102;2024-03-02T13:51:58;0.70;;;0.60;;
15573;SDS011;7888;46.748;8.102;2024-03-02T13:54:26;0.63;;;0.60;;
15573;SDS011;7888;46.748;8.102;2024-03-02T13:56:51;0.70;;;0.60;;
15573;SDS011;7888;46.748;8.102;2024-03-02T13:59:17;0.70;;;0.67;;
15573;SDS011;7888;46.748;8.102;2024-03-02T14:01:44;0.70;;;0.60;;
15573;SDS011;7888;46.748;8.102;2024-03-02T14:04:10;0.57;;;0.57;;
15573;SDS011;7888;46.748;8.102;2024-03-02T14:06:35;0.80;;;0.50;;
15573;SDS011;7888;46.748;8.102;2024-03-02T14:09:02;0.50;;;0.50;;
15573;SDS011;7888;46.748;8.102;2024-03-02T14:11:28;0.70;;;0.50;;
15573;SDS011;7888;46.748;8.102;2024-03-02T14:13:54;0.50;;;0.40;;
15573;SDS011;7888;46.748;8.102;2024-03-02T14:16:19;0.40;;;0.40;;
15573;SDS011;7888;46.748;8.102;2024-03-02T14:18:45;0.70;;;0.40;;
15573;SDS011;7888;46.748;8.102;2024-03-02T14:21:11;0.57;;;0.50;;
15573;SDS011;7888;46.748;8.102;2024-03-02T14:23:37;0.63;;;0.53;;
15573;SDS011;7888;46.748;8.102;2024-03-02T14:26:03;1.00;;;0.47;;
15573;SDS011;7888;46.748;8.102;2024-03-02T14:28:28;0.87;;;0.50;;
15573;SDS011;7888;46.748;8.102;2024-03-02T14:30:54;0.40;;;0.40;;
15573;SDS011;7888;46.748;8.102;2024-03-02T14:33:20;0.67;;;0.47;;
15573;SDS011;7888;46.748;8.102;2024-03-02T14:35:46;0.40;;;0.40;;
15573;SDS011;7888;46.748;8.102;2024-03-02T14:38:12;0.30;;;0.30;;
15573;SDS011;7888;46.748;8.102;2024-03-02T14:40:38;0.60;;;0.30;;
15573;SDS011;7888;46.748;8.102;2024-03-02T14:43:04;0.60;;;0.40;;
15573;SDS011;7888;46.748;8.102;2024-03-02T14:45:29;0.80;;;0.40;;
15573;SDS011;7888;46.748;8.102;2024-03-02T14:47:55;0.73;;;0.40;;
15573;SDS011;7888;46.748;8.102;2024-03-02T14:50:24;0.30;;;0.30;;
15573;SDS011;7888;46.748;8.102;2024-03-02T14:52:54;2.03;;;0.40;;
15573;SDS011;7888;46.748;8.102;2024-03-02T14:55:22;0.30;;;0.30;;
15573;SDS011;7888;46.748;8.102;2024-03-02T14:57:49;0.33;;;0.30;;
15573;SDS011;7888;46.748;8.102;2024-03-02T15:00:15;0.40;;;0.30;;
15573;SDS011;7888;46.748;8.102;2024-03-02T15:02:41;0.83;;;0.30;;
15573;SDS011;7888;46.748;8.102;2024-03-02T15:05:07;0.30;;;0.30;;
15573;SDS011;7888;46.748;8.102;2024-03-02T15:07:33;0.47;;;0.40;;
15573;SDS011;7888;46.748;8.102;2024-03-02T15:09:59;0.50;;;0.40;;
15573;SDS011;7888;46.748;8.102;2024-03-02T15:12:25;0.40;;;0.33;;
15573;SDS011;7888;46.748;8.102;2024-03-02T15:14:51;0.30;;;0.30;;